sensor_id;sensor_type;location;lat;lon;timestamp;P1;durP1;ratioP1;P2;durP2;ratioP2
1206;SDS011;593;53.184;8.216;2024-03-23T00:53:07;5.88;;;2.42;;
1206;SDS011;593;53.184;8.216;2024-03-23T00:55:33;10.30;;;2.43;;
1206;SDS011;593;53.184;8.216;2024-03-23T00:57:59;5.60;;;2.30;;
1206;SDS011;593;53.184;8.216;2024-03-23T01:00:24;8.87;;;2.03;;
1206;SDS011;593;53.184;8.216;2024-03-23T01:02:49;9.17;;;2.03;;
1206;SDS011;593;53.184;8.216;2024-03-23T01:05:15;6.57;;;1.90;;
1206;SDS011;593;53.184;8.216;2024-03-23T01:07:40;7.80;;;1.73;;
1206;SDS011;593;53.184;8.216;2024-03-23T01:10:06;10.40;;;2.70;;
1206;SDS011;593;53.184;8.216;2024-03-23T01:12:31;6.10;;;1.50;;
1206;SDS011;593;53.184;8.216;2024-03-23T01:14:57;15.53;;;2.47;;
1206;SDS011;593;53.184;8.216;2024-03-23T01:17:22;5.33;;;1.50;;
1206;SDS011;593;53.184;8.216;2024-03-23T01:19:47;13.20;;;2.50;;
1206;SDS011;593;53.184;8.216;2024-03-23T01:22:13;12.10;;;2.57;;
1206;SDS011;593;53.184;8.216;2024-03-23T01:24:38;8.87;;;1.80;;
1206;SDS011;593;53.184;8.216;2024-03-23T01:27:04;7.00;;;2.20;;
1206;SDS011;593;53.184;8.216;2024-03-23T01:29:29;8.57;;;2.57;;
1206;SDS011;593;53.184;8.216;2024-03-23T01:31:55;7.77;;;2.70;;
1206;SDS011;593;53.184;8.216;2024-03-23T01:34:20;6.57;;;2.13;;
1206;SDS011;593;53.184;8.216;2024-03-23T01:36:46;6.20;;;1.83;;
1206;SDS011;593;53.184;8.216;2024-03-23T01:39:12;4.50;;;2.47;;
1206;SDS011;593;53.184;8.216;2024-03-23T01:41:37;11.85;;;3.00;;
1206;SDS011;593;53.184;8.216;2024-03-23T01:44:07;8.82;;;2.88;;
1206;SDS011;593;53.184;8.216;2024-03-23T01:46:33;11.00;;;2.60;;
1206;SDS011;593;53.184;8.216;2024-03-23T01:48:59;8.80;;;2.53;;
1206;SDS011;593;53.184;8.216;2024-03-23T01:51:24;6.27;;;2.13;;
1206;SDS011;593;53.184;8.216;2024-03-23T01:53:51;8.73;;;3.20;;
1206;SDS011;593;53.184;8.216;2024-03-23T01:56:18;9.40;;;2.53;;
1206;SDS011;593;53.184;8.216;2024-03-23T01:58:43;5.60;;;1.57;;
1206;SDS011;593;53.184;8.216;2024-03-23T02:01:09;10.67;;;2.93;;
1206;SDS011;593;53.184;8.216;2024-03-23T02:03:34;7.73;;;2.40;;
1206;SDS011;593;53.184;8.216;2024-03-23T02:05:59;8.90;;;1.93;;
1206;SDS011;593;53.184;8.216;2024-03-23T02:08:25;7.17;;;2.77;;
1206;SDS011;593;53.184;8.216;2024-03-23T02:10:50;6.93;;;2.70;;
1206;SDS011;593;53.184;8.216;2024-03-23T02:13:19;10.10;;;2.10;;
1206;SDS011;593;53.184;8.216;2024-03-23T02:15:44;11.82;;;2.42;;
1206;SDS011;593;53.184;8.216;2024-03-23T02:18:10;8.57;;;2.80;;
1206;SDS011;593;53.184;8.216;2024-03-23T02:20:36;9.10;;;2.37;;
1206;SDS011;593;53.184;8.216;2024-03-23T02:23:02;5.57;;;2.22;;
1206;SDS011;593;53.184;8.216;2024-03-23T02:25:31;2.63;;;1.92;;
1206;SDS011;593;53.184;8.216;2024-03-23T02:27:58;5.07;;;2.22;;
1206;SDS011;593;53.184;8.216;2024-03-23T02:30:24;10.93;;;2.70;;
1206;SDS011;593;53.184;8.216;2024-03-23T02:32:50;6.40;;;2.20;;
1206;SDS011;593;53.184;8.216;2024-03-23T02:35:15;8.50;;;2.33;;
1206;SDS011;593;53.184;8.216;2024-03-23T02:37:41;7.77;;;2.10;;
1206;SDS011;593;53.184;8.216;2024-03-23T02:40:06;7.00;;;2.80;;
1206;SDS011;593;53.184;8.216;2024-03-23T02:42:32;12.93;;;2.40;;
1206;SDS011;593;53.184;8.216;2024-03-23T02:44:58;7.47;;;1.97;;
1206;SDS011;593;53.184;8.216;2024-03-23T02:47:24;11.00;;;2.80;;
1206;SDS011;593;53.184;8.216;2024-03-23T02:49:49;9.33;;;2.07;;
1206;SDS011;593;53.184;8.216;2024-03-23T02:52:15;9.53;;;1.83;;
1206;SDS011;593;53.184;8.216;2024-03-23T02:54:40;10.73;;;2.70;;
1206;SDS011;593;53.184;8.216;2024-03-23T02:57:09;9.77;;;2.85;;
1206;SDS011;593;53.184;8.216;2024-03-23T02:59:35;8.97;;;2.30;;
1206;SDS011;593;53.184;8.216;2024-03-23T03:02:00;9.70;;;2.47;;
1206;SDS011;593;53.184;8.216;2024-03-23T03:04:26;9.40;;;2.30;;
1206;SDS011;593;53.184;8.216;2024-03-23T03:06:51;6.10;;;1.60;;
1206;SDS011;593;53.184;8.216;2024-03-23T03:09:17;6.73;;;2.10;;
1206;SDS011;593;53.184;8.216;2024-03-23T03:11:42;7.87;;;2.27;;
1206;SDS011;593;53.184;8.216;2024-03-23T03:14:08;14.60;;;2.80;;
1206;SDS011;593;53.184;8.216;2024-03-23T03:16:33;9.17;;;2.67;;
1206;SDS011;593;53.184;8.216;2024-03-23T03:18:59;14.60;;;2.57;;
1206;SDS011;593;53.184;8.216;2024-03-23T03:21:24;7.53;;;2.67;;
1206;SDS011;593;53.184;8.216;2024-03-23T03:23:50;7.87;;;2.80;;
1206;SDS011;593;53.184;8.216;2024-03-23T03:26:16;6.57;;;2.60;;
1206;SDS011;593;53.184;8.216;2024-03-23T03:28:42;9.10;;;2.75;;
1206;SDS011;593;53.184;8.216;2024-03-23T03:31:09;16.27;;;2.70;;
1206;SDS011;593;53.184;8.216;2024-03-23T03:33:34;10.53;;;1.97;;
1206;SDS011;593;53.184;8.216;2024-03-23T03:36:00;4.30;;;2.13;;
1206;SDS011;593;53.184;8.216;2024-03-23T03:38:25;4.80;;;2.13;;
1206;SDS011;593;53.184;8.216;2024-03-23T03:40:51;5.10;;;2.10;;
1206;SDS011;593;53.184;8.216;2024-03-23T03:43:17;10.05;;;2.25;;
1206;SDS011;593;53.184;8.216;2024-03-23T03:45:43;5.70;;;2.90;;
1206;SDS011;593;53.184;8.216;2024-03-23T03:48:16;14.95;;;2.92;;
1206;SDS011;593;53.184;8.216;2024-03-23T03:50:42;6.63;;;2.70;;
1206;SDS011;593;53.184;8.216;2024-03-23T03:53:07;8.50;;;2.40;;
1206;SDS011;593;53.184;8.216;2024-03-23T03:55:32;10.90;;;2.43;;
1206;SDS011;593;53.184;8.216;2024-03-23T03:57:58;10.33;;;2.27;;
1206;SDS011;593;53.184;8.216;2024-03-23T04:00:23;7.17;;;1.93;;
1206;SDS011;593;53.184;8.216;2024-03-23T04:02:49;13.10;;;2.80;;
1206;SDS011;593;53.184;8.216;2024-03-23T04:05:14;7.10;;;1.70;;
1206;SDS011;593;53.184;8.216;2024-03-23T04:07:39;9.00;;;2.63;;
1206;SDS011;593;53.184;8.216;2024-03-23T04:10:05;5.17;;;1.97;;
1206;SDS011;593;53.184;8.216;2024-03-23T04:12:32;8.52;;;3.65;;
1206;SDS011;593;53.184;8.216;2024-03-23T04:14:58;6.77;;;2.60;;
1206;SDS011;593;53.184;8.216;2024-03-23T04:17:24;8.87;;;2.37;;
1206;SDS011;593;53.184;8.216;2024-03-23T04:19:50;5.23;;;2.07;;
1206;SDS011;593;53.184;8.216;2024-03-23T04:22:17;6.53;;;2.10;;
1206;SDS011;593;53.184;8.216;2024-03-23T04:24:43;15.13;;;3.23;;
1206;SDS011;593;53.184;8.216;2024-03-23T04:27:08;7.77;;;2.17;;
1206;SDS011;593;53.184;8.216;2024-03-23T04:29:33;11.07;;;3.33;;
1206;SDS011;593;53.184;8.216;2024-03-23T04:31:59;12.10;;;2.87;;
1206;SDS011;593;53.184;8.216;2024-03-23T04:34:26;10.75;;;1.80;;
1206;SDS011;593;53.184;8.216;2024-03-23T04:36:51;4.87;;;1.93;;
1206;SDS011;593;53.184;8.216;2024-03-23T04:39:16;10.50;;;2.80;;
1206;SDS011;593;53.184;8.216;2024-03-23T04:41:42;8.07;;;3.00;;
1206;SDS011;593;53.184;8.216;2024-03-23T04:44:07;8.10;;;2.20;;
1206;SDS011;593;53.184;8.216;2024-03-23T04:46:33;7.07;;;2.30;;
1206;SDS011;593;53.184;8.216;2024-03-23T04:48:58;7.17;;;1.80;;
1206;SDS011;593;53.184;8.216;2024-03-23T04:51:23;13.87;;;2.57;;
1206;SDS011;593;53.184;8.216;2024-03-23T04:53:49;9.63;;;2.00;;
1206;SDS011;593;53.184;8.216;2024-03-23T04:56:15;8.83;;;2.93;;
1206;SDS011;593;53.184;8.216;2024-03-23T04:58:42;15.38;;;2.53;;
1206;SDS011;593;53.184;8.216;2024-03-23T05:01:07;4.87;;;1.90;;
1206;SDS011;593;53.184;8.216;2024-03-23T05:03:32;6.97;;;2.30;;
1206;SDS011;593;53.184;8.216;2024-03-23T05:05:58;6.77;;;1.90;;
1206;SDS011;593;53.184;8.216;2024-03-23T05:08:23;8.87;;;1.73;;
1206;SDS011;593;53.184;8.216;2024-03-23T05:10:49;9.73;;;1.97;;
1206;SDS011;593;53.184;8.216;2024-03-23T05:13:14;10.30;;;1.90;;
1206;SDS011;593;53.184;8.216;2024-03-23T05:15:40;9.40;;;2.40;;
1206;SDS011;593;53.184;8.216;2024-03-23T05:18:05;10.83;;;2.77;;
1206;SDS011;593;53.184;8.216;2024-03-23T05:20:31;14.60;;;3.03;;
1206;SDS011;593;53.184;8.216;2024-03-23T05:22:58;8.65;;;3.00;;
1206;SDS011;593;53.184;8.216;2024-03-23T05:25:23;6.97;;;5.00;;
1206;SDS011;593;53.184;8.216;2024-03-23T05:27:49;8.03;;;2.40;;
1206;SDS011;593;53.184;8.216;2024-03-23T05:30:14;6.90;;;2.97;;
1206;SDS011;593;53.184;8.216;2024-03-23T05:32:40;8.63;;;2.20;;
1206;SDS011;593;53.184;8.216;2024-03-23T05:35:07;6.05;;;2.00;;
1206;SDS011;593;53.184;8.216;2024-03-23T05:37:33;5.47;;;1.95;;
1206;SDS011;593;53.184;8.216;2024-03-23T05:39:59;11.80;;;2.95;;
1206;SDS011;593;53.184;8.216;2024-03-23T05:42:25;12.37;;;2.10;;
1206;SDS011;593;53.184;8.216;2024-03-23T05:44:53;8.90;;;1.93;;
1206;SDS011;593;53.184;8.216;2024-03-23T05:47:19;7.18;;;1.52;;
1206;SDS011;593;53.184;8.216;2024-03-23T05:49:45;6.43;;;2.70;;
1206;SDS011;593;53.184;8.216;2024-03-23T05:52:11;10.30;;;1.80;;
1206;SDS011;593;53.184;8.216;2024-03-23T05:54:37;13.68;;;3.17;;
1206;SDS011;593;53.184;8.216;2024-03-23T05:57:03;8.83;;;2.70;;
1206;SDS011;593;53.184;8.216;2024-03-23T05:59:29;8.55;;;2.20;;
1206;SDS011;593;53.184;8.216;2024-03-23T06:01:56;5.90;;;2.15;;
1206;SDS011;593;53.184;8.216;2024-03-23T06:04:21;12.40;;;2.50;;
1206;SDS011;593;53.184;8.216;2024-03-23T06:06:47;5.03;;;1.95;;
1206;SDS011;593;53.184;8.216;2024-03-23T06:09:13;14.03;;;2.43;;
1206;SDS011;593;53.184;8.216;2024-03-23T06:11:38;8.87;;;2.67;;
1206;SDS011;593;53.184;8.216;2024-03-23T06:14:04;4.33;;;1.77;;
1206;SDS011;593;53.184;8.216;2024-03-23T06:16:29;5.73;;;2.10;;
1206;SDS011;593;53.184;8.216;2024-03-23T06:18:55;7.97;;;1.70;;
1206;SDS011;593;53.184;8.216;2024-03-23T06:21:21;10.43;;;2.03;;
1206;SDS011;593;53.184;8.216;2024-03-23T06:23:51;7.70;;;3.10;;
1206;SDS011;593;53.184;8.216;2024-03-23T06:26:20;9.23;;;2.58;;
1206;SDS011;593;53.184;8.216;2024-03-23T06:28:46;11.75;;;2.25;;
1206;SDS011;593;53.184;8.216;2024-03-23T06:31:12;4.50;;;2.10;;
1206;SDS011;593;53.184;8.216;2024-03-23T06:33:37;9.90;;;2.90;;
1206;SDS011;593;53.184;8.216;2024-03-23T06:36:04;12.70;;;2.73;;
1206;SDS011;593;53.184;8.216;2024-03-23T06:38:30;10.30;;;3.53;;
1206;SDS011;593;53.184;8.216;2024-03-23T06:40:56;8.90;;;3.50;;
1206;SDS011;593;53.184;8.216;2024-03-23T06:43:21;8.07;;;2.70;;
1206;SDS011;593;53.184;8.216;2024-03-23T06:45:53;6.80;;;2.30;;
1206;SDS011;593;53.184;8.216;2024-03-23T06:48:19;11.20;;;3.20;;
1206;SDS011;593;53.184;8.216;2024-03-23T06:50:45;7.97;;;2.60;;
1206;SDS011;593;53.184;8.216;2024-03-23T06:53:11;12.43;;;2.83;;
1206;SDS011;593;53.184;8.216;2024-03-23T06:55:37;8.40;;;2.65;;
1206;SDS011;593;53.184;8.216;2024-03-23T06:58:03;10.40;;;3.23;;
1206;SDS011;593;53.184;8.216;2024-03-23T07:00:29;5.43;;;3.00;;
1206;SDS011;593;53.184;8.216;2024-03-23T07:02:54;9.70;;;2.23;;
1206;SDS011;593;53.184;8.216;2024-03-23T07:05:20;14.00;;;3.57;;
1206;SDS011;593;53.184;8.216;2024-03-23T07:07:45;10.40;;;1.93;;
1206;SDS011;593;53.184;8.216;2024-03-23T07:10:11;9.70;;;3.27;;
1206;SDS011;593;53.184;8.216;2024-03-23T07:12:36;7.70;;;2.60;;
1206;SDS011;593;53.184;8.216;2024-03-23T07:15:03;10.07;;;3.03;;
1206;SDS011;593;53.184;8.216;2024-03-23T07:17:28;7.47;;;2.97;;
1206;SDS011;593;53.184;8.216;2024-03-23T07:19:54;9.57;;;3.00;;
1206;SDS011;593;53.184;8.216;2024-03-23T07:22:19;10.70;;;3.20;;
1206;SDS011;593;53.184;8.216;2024-03-23T07:24:45;7.60;;;2.00;;
1206;SDS011;593;53.184;8.216;2024-03-23T07:27:10;7.63;;;2.00;;
1206;SDS011;593;53.184;8.216;2024-03-23T07:29:36;14.23;;;2.83;;
1206;SDS011;593;53.184;8.216;2024-03-23T07:32:01;11.40;;;2.33;;
1206;SDS011;593;53.184;8.216;2024-03-23T07:34:27;7.93;;;2.20;;
1206;SDS011;593;53.184;8.216;2024-03-23T07:36:53;13.50;;;2.80;;
1206;SDS011;593;53.184;8.216;2024-03-23T07:39:18;5.77;;;2.30;;
1206;SDS011;593;53.184;8.216;2024-03-23T07:41:44;8.57;;;2.37;;
1206;SDS011;593;53.184;8.216;2024-03-23T07:44:10;8.15;;;2.08;;
1206;SDS011;593;53.184;8.216;2024-03-23T07:46:35;7.50;;;1.93;;
1206;SDS011;593;53.184;8.216;2024-03-23T07:49:01;11.57;;;2.13;;
1206;SDS011;593;53.184;8.216;2024-03-23T07:51:26;7.33;;;2.57;;
1206;SDS011;593;53.184;8.216;2024-03-23T07:53:52;8.17;;;1.73;;
1206;SDS011;593;53.184;8.216;2024-03-23T07:56:18;4.30;;;1.93;;
1206;SDS011;593;53.184;8.216;2024-03-23T07:58:44;8.60;;;2.15;;
1206;SDS011;593;53.184;8.216;2024-03-23T08:01:14;9.63;;;1.93;;
1206;SDS011;593;53.184;8.216;2024-03-23T08:03:41;4.00;;;1.50;;
1206;SDS011;593;53.184;8.216;2024-03-23T08:06:08;8.43;;;1.70;;
1206;SDS011;593;53.184;8.216;2024-03-23T08:08:34;7.33;;;1.70;;
1206;SDS011;593;53.184;8.216;2024-03-23T08:11:00;4.25;;;1.60;;
1206;SDS011;593;53.184;8.216;2024-03-23T08:13:26;7.23;;;1.63;;
1206;SDS011;593;53.184;8.216;2024-03-23T08:15:51;6.43;;;1.58;;
1206;SDS011;593;53.184;8.216;2024-03-23T08:18:17;5.87;;;1.70;;
1206;SDS011;593;53.184;8.216;2024-03-23T08:20:42;8.33;;;2.27;;
1206;SDS011;593;53.184;8.216;2024-03-23T08:23:08;9.67;;;2.30;;
1206;SDS011;593;53.184;8.216;2024-03-23T08:25:34;5.30;;;1.73;;
1206;SDS011;593;53.184;8.216;2024-03-23T08:28:00;6.15;;;2.00;;
1206;SDS011;593;53.184;8.216;2024-03-23T08:30:25;5.47;;;1.43;;
1206;SDS011;593;53.184;8.216;2024-03-23T08:32:51;3.60;;;1.57;;
1206;SDS011;593;53.184;8.216;2024-03-23T08:35:17;6.00;;;1.70;;
1206;SDS011;593;53.184;8.216;2024-03-23T08:37:42;5.40;;;1.80;;
1206;SDS011;593;53.184;8.216;2024-03-23T08:40:08;5.43;;;1.53;;
1206;SDS011;593;53.184;8.216;2024-03-23T08:42:34;6.87;;;1.43;;
1206;SDS011;593;53.184;8.216;2024-03-23T08:44:59;8.37;;;2.00;;
1206;SDS011;593;53.184;8.216;2024-03-23T08:47:25;4.80;;;1.60;;
1206;SDS011;593;53.184;8.216;2024-03-23T08:49:50;4.63;;;1.40;;
1206;SDS011;593;53.184;8.216;2024-03-23T08:52:16;7.20;;;1.17;;
1206;SDS011;593;53.184;8.216;2024-03-23T08:54:41;6.03;;;1.30;;
1206;SDS011;593;53.184;8.216;2024-03-23T08:57:07;3.70;;;1.10;;
1206;SDS011;593;53.184;8.216;2024-03-23T08:59:33;6.17;;;2.57;;
1206;SDS011;593;53.184;8.216;2024-03-23T09:01:58;6.33;;;1.00;;
1206;SDS011;593;53.184;8.216;2024-03-23T09:04:23;5.53;;;1.90;;
1206;SDS011;593;53.184;8.216;2024-03-23T09:06:49;5.63;;;1.00;;
1206;SDS011;593;53.184;8.216;2024-03-23T09:09:14;4.00;;;1.17;;
1206;SDS011;593;53.184;8.216;2024-03-23T09:11:40;3.87;;;1.73;;
1206;SDS011;593;53.184;8.216;2024-03-23T09:14:05;4.57;;;1.67;;
1206;SDS011;593;53.184;8.216;2024-03-23T09:16:31;3.63;;;1.30;;
1206;SDS011;593;53.184;8.216;2024-03-23T09:18:56;2.27;;;1.43;;
1206;SDS011;593;53.184;8.216;2024-03-23T09:21:22;4.67;;;1.80;;
1206;SDS011;593;53.184;8.216;2024-03-23T09:23:47;7.20;;;1.33;;
1206;SDS011;593;53.184;8.216;2024-03-23T09:26:12;3.90;;;1.57;;
1206;SDS011;593;53.184;8.216;2024-03-23T09:28:38;3.60;;;2.27;;
1206;SDS011;593;53.184;8.216;2024-03-23T09:31:04;7.47;;;2.33;;
1206;SDS011;593;53.184;8.216;2024-03-23T09:33:30;1.73;;;1.17;;
1206;SDS011;593;53.184;8.216;2024-03-23T09:35:55;5.23;;;1.73;;
1206;SDS011;593;53.184;8.216;2024-03-23T09:38:24;2.30;;;1.40;;
1206;SDS011;593;53.184;8.216;2024-03-23T09:40:52;4.87;;;1.20;;
1206;SDS011;593;53.184;8.216;2024-03-23T09:43:18;8.87;;;1.53;;
1206;SDS011;593;53.184;8.216;2024-03-23T09:45:45;3.85;;;2.10;;
1206;SDS011;593;53.184;8.216;2024-03-23T09:48:11;2.83;;;1.25;;
1206;SDS011;593;53.184;8.216;2024-03-23T09:50:40;6.23;;;1.10;;
1206;SDS011;593;53.184;8.216;2024-03-23T09:53:07;3.55;;;1.20;;
1206;SDS011;593;53.184;8.216;2024-03-23T09:55:34;2.78;;;1.17;;
1206;SDS011;593;53.184;8.216;2024-03-23T09:58:01;5.03;;;1.30;;
1206;SDS011;593;53.184;8.216;2024-03-23T10:00:27;3.80;;;1.15;;
1206;SDS011;593;53.184;8.216;2024-03-23T10:02:55;3.03;;;1.20;;
1206;SDS011;593;53.184;8.216;2024-03-23T10:05:21;2.70;;;1.13;;
1206;SDS011;593;53.184;8.216;2024-03-23T10:07:50;3.95;;;1.48;;
1206;SDS011;593;53.184;8.216;2024-03-23T10:10:16;2.97;;;1.00;;
1206;SDS011;593;53.184;8.216;2024-03-23T10:12:46;3.50;;;2.00;;
1206;SDS011;593;53.184;8.216;2024-03-23T10:15:22;5.82;;;1.40;;
1206;SDS011;593;53.184;8.216;2024-03-23T10:17:52;2.30;;;1.30;;
1206;SDS011;593;53.184;8.216;2024-03-23T10:20:21;1.13;;;0.95;;
1206;SDS011;593;53.184;8.216;2024-03-23T10:22:48;3.33;;;0.93;;
1206;SDS011;593;53.184;8.216;2024-03-23T10:25:14;5.32;;;1.42;;
1206;SDS011;593;53.184;8.216;2024-03-23T10:27:40;3.57;;;1.70;;
1206;SDS011;593;53.184;8.216;2024-03-23T10:30:09;2.95;;;1.25;;
1206;SDS011;593;53.184;8.216;2024-03-23T10:32:35;4.00;;;1.27;;
1206;SDS011;593;53.184;8.216;2024-03-23T10:37:41;5.00;;;1.48;;
1206;SDS011;593;53.184;8.216;2024-03-23T10:40:08;4.63;;;1.20;;
1206;SDS011;593;53.184;8.216;2024-03-23T10:42:37;3.38;;;1.20;;
1206;SDS011;593;53.184;8.216;2024-03-23T10:45:06;3.97;;;1.10;;
1206;SDS011;593;53.184;8.216;2024-03-23T10:47:34;5.45;;;1.23;;
1206;SDS011;593;53.184;8.216;2024-03-23T10:50:00;2.93;;;1.20;;
1206;SDS011;593;53.184;8.216;2024-03-23T10:52:25;3.00;;;1.20;;
1206;SDS011;593;53.184;8.216;2024-03-23T10:54:51;3.17;;;1.43;;
1206;SDS011;593;53.184;8.216;2024-03-23T10:57:21;6.10;;;1.60;;
1206;SDS011;593;53.184;8.216;2024-03-23T10:59:48;7.57;;;1.10;;
1206;SDS011;593;53.184;8.216;2024-03-23T11:02:21;2.67;;;1.30;;
1206;SDS011;593;53.184;8.216;2024-03-23T11:04:47;4.90;;;1.57;;
1206;SDS011;593;53.184;8.216;2024-03-23T11:07:31;2.20;;;1.00;;
1206;SDS011;593;53.184;8.216;2024-03-23T11:09:58;2.63;;;1.23;;
1206;SDS011;593;53.184;8.216;2024-03-23T11:12:28;8.73;;;1.10;;
1206;SDS011;593;53.184;8.216;2024-03-23T11:15:01;3.10;;;0.97;;
1206;SDS011;593;53.184;8.216;2024-03-23T11:17:28;4.20;;;1.57;;
1206;SDS011;593;53.184;8.216;2024-03-23T11:22:40;5.13;;;1.10;;
1206;SDS011;593;53.184;8.216;2024-03-23T11:25:18;1.93;;;1.23;;
1206;SDS011;593;53.184;8.216;2024-03-23T11:27:47;5.07;;;1.50;;
1206;SDS011;593;53.184;8.216;2024-03-23T11:30:17;1.33;;;0.83;;
1206;SDS011;593;53.184;8.216;2024-03-23T11:32:51;3.78;;;1.50;;
1206;SDS011;593;53.184;8.216;2024-03-23T11:40:41;1.50;;;1.30;;
1206;SDS011;593;53.184;8.216;2024-03-23T11:43:08;1.80;;;1.00;;
1206;SDS011;593;53.184;8.216;2024-03-23T11:45:50;0.93;;;0.53;;
1206;SDS011;593;53.184;8.216;2024-03-23T11:48:21;2.13;;;0.50;;
1206;SDS011;593;53.184;8.216;2024-03-23T11:50:53;0.70;;;0.50;;
1206;SDS011;593;53.184;8.216;2024-03-23T11:53:21;0.70;;;0.50;;
1206;SDS011;593;53.184;8.216;2024-03-23T11:55:58;1.43;;;0.60;;
1206;SDS011;593;53.184;8.216;2024-03-23T11:58:26;1.47;;;0.60;;
1206;SDS011;593;53.184;8.216;2024-03-23T12:00:59;0.63;;;0.40;;
1206;SDS011;593;53.184;8.216;2024-03-23T12:03:30;2.00;;;0.60;;
1206;SDS011;593;53.184;8.216;2024-03-23T12:05:58;0.60;;;0.40;;
1206;SDS011;593;53.184;8.216;2024-03-23T12:11:15;0.80;;;0.57;;
1206;SDS011;593;53.184;8.216;2024-03-23T12:13:41;1.83;;;0.90;;
1206;SDS011;593;53.184;8.216;2024-03-23T12:16:19;1.37;;;0.50;;
1206;SDS011;593;53.184;8.216;2024-03-23T12:18:46;0.93;;;0.55;;
1206;SDS011;593;53.184;8.216;2024-03-23T12:21:16;0.90;;;0.57;;
1206;SDS011;593;53.184;8.216;2024-03-23T12:23:42;1.00;;;0.60;;
1206;SDS011;593;53.184;8.216;2024-03-23T12:26:12;1.40;;;0.80;;
1206;SDS011;593;53.184;8.216;2024-03-23T12:28:37;2.20;;;0.73;;
1206;SDS011;593;53.184;8.216;2024-03-23T12:31:03;4.25;;;0.65;;
1206;SDS011;593;53.184;8.216;2024-03-23T12:33:30;0.98;;;0.50;;
1206;SDS011;593;53.184;8.216;2024-03-23T12:35:56;2.53;;;0.90;;
1206;SDS011;593;53.184;8.216;2024-03-23T12:38:21;1.20;;;0.60;;
1206;SDS011;593;53.184;8.216;2024-03-23T12:40:47;2.10;;;0.70;;
1206;SDS011;593;53.184;8.216;2024-03-23T12:43:13;4.67;;;1.00;;
1206;SDS011;593;53.184;8.216;2024-03-23T12:45:39;0.97;;;0.60;;
1206;SDS011;593;53.184;8.216;2024-03-23T12:48:04;1.37;;;0.80;;
1206;SDS011;593;53.184;8.216;2024-03-23T12:50:30;3.73;;;1.30;;
1206;SDS011;593;53.184;8.216;2024-03-23T12:52:55;3.07;;;0.60;;
1206;SDS011;593;53.184;8.216;2024-03-23T12:55:21;1.63;;;0.60;;
1206;SDS011;593;53.184;8.216;2024-03-23T12:57:46;2.77;;;0.73;;
1206;SDS011;593;53.184;8.216;2024-03-23T13:00:12;0.70;;;0.60;;
1206;SDS011;593;53.184;8.216;2024-03-23T13:02:38;1.27;;;0.50;;
1206;SDS011;593;53.184;8.216;2024-03-23T13:05:04;3.37;;;0.70;;
1206;SDS011;593;53.184;8.216;2024-03-23T13:07:30;1.70;;;0.60;;
1206;SDS011;593;53.184;8.216;2024-03-23T13:09:55;5.57;;;0.80;;
1206;SDS011;593;53.184;8.216;2024-03-23T13:12:21;3.13;;;0.97;;
1206;SDS011;593;53.184;8.216;2024-03-23T13:14:48;3.87;;;0.77;;
1206;SDS011;593;53.184;8.216;2024-03-23T13:17:13;2.37;;;1.07;;
1206;SDS011;593;53.184;8.216;2024-03-23T13:19:39;1.60;;;0.90;;
1206;SDS011;593;53.184;8.216;2024-03-23T13:22:04;0.97;;;0.80;;
1206;SDS011;593;53.184;8.216;2024-03-23T13:24:30;1.73;;;0.60;;
1206;SDS011;593;53.184;8.216;2024-03-23T13:26:56;2.13;;;0.70;;
1206;SDS011;593;53.184;8.216;2024-03-23T13:29:22;0.60;;;0.50;;
1206;SDS011;593;53.184;8.216;2024-03-23T13:31:49;3.05;;;0.70;;
1206;SDS011;593;53.184;8.216;2024-03-23T13:34:16;1.33;;;0.63;;
1206;SDS011;593;53.184;8.216;2024-03-23T13:36:42;1.00;;;0.70;;
1206;SDS011;593;53.184;8.216;2024-03-23T13:39:11;1.92;;;0.90;;
1206;SDS011;593;53.184;8.216;2024-03-23T13:41:40;1.60;;;0.60;;
1206;SDS011;593;53.184;8.216;2024-03-23T13:44:07;5.13;;;1.00;;
1206;SDS011;593;53.184;8.216;2024-03-23T13:46:33;2.23;;;0.70;;
1206;SDS011;593;53.184;8.216;2024-03-23T13:48:59;3.53;;;0.67;;
1206;SDS011;593;53.184;8.216;2024-03-23T13:51:25;5.73;;;1.10;;
1206;SDS011;593;53.184;8.216;2024-03-23T13:53:52;2.20;;;0.68;;
1206;SDS011;593;53.184;8.216;2024-03-23T13:56:21;1.20;;;0.97;;
1206;SDS011;593;53.184;8.216;2024-03-23T13:58:49;0.80;;;0.80;;
1206;SDS011;593;53.184;8.216;2024-03-23T14:01:15;2.90;;;0.70;;
1206;SDS011;593;53.184;8.216;2024-03-23T14:03:41;2.10;;;0.70;;
1206;SDS011;593;53.184;8.216;2024-03-23T14:06:08;3.90;;;1.10;;
1206;SDS011;593;53.184;8.216;2024-03-23T14:08:37;3.17;;;1.10;;
1206;SDS011;593;53.184;8.216;2024-03-23T14:11:07;4.63;;;0.90;;
1206;SDS011;593;53.184;8.216;2024-03-23T14:13:34;2.03;;;0.80;;
1206;SDS011;593;53.184;8.216;2024-03-23T14:15:59;2.77;;;0.60;;
1206;SDS011;593;53.184;8.216;2024-03-23T14:18:25;4.70;;;1.13;;
1206;SDS011;593;53.184;8.216;2024-03-23T14:20:56;2.30;;;0.60;;
1206;SDS011;593;53.184;8.216;2024-03-23T14:23:26;1.83;;;0.80;;
1206;SDS011;593;53.184;8.216;2024-03-23T14:25:54;5.10;;;0.80;;
1206;SDS011;593;53.184;8.216;2024-03-23T14:28:20;3.47;;;0.87;;
1206;SDS011;593;53.184;8.216;2024-03-23T14:30:45;2.30;;;0.70;;
1206;SDS011;593;53.184;8.216;2024-03-23T14:33:11;1.40;;;0.80;;
1206;SDS011;593;53.184;8.216;2024-03-23T14:35:37;3.03;;;1.07;;
1206;SDS011;593;53.184;8.216;2024-03-23T14:38:03;3.10;;;0.80;;
1206;SDS011;593;53.184;8.216;2024-03-23T14:40:28;2.60;;;0.70;;
1206;SDS011;593;53.184;8.216;2024-03-23T14:42:54;2.10;;;0.70;;
1206;SDS011;593;53.184;8.216;2024-03-23T14:45:23;2.70;;;0.90;;
1206;SDS011;593;53.184;8.216;2024-03-23T14:47:49;0.90;;;0.60;;
1206;SDS011;593;53.184;8.216;2024-03-23T14:50:15;0.77;;;0.40;;
1206;SDS011;593;53.184;8.216;2024-03-23T14:52:42;4.30;;;0.90;;
1206;SDS011;593;53.184;8.216;2024-03-23T14:55:09;1.57;;;0.60;;
1206;SDS011;593;53.184;8.216;2024-03-23T14:57:34;1.57;;;0.70;;
1206;SDS011;593;53.184;8.216;2024-03-23T15:00:00;1.93;;;1.20;;
1206;SDS011;593;53.184;8.216;2024-03-23T15:02:26;2.00;;;0.80;;
1206;SDS011;593;53.184;8.216;2024-03-23T15:04:53;3.20;;;0.63;;
1206;SDS011;593;53.184;8.216;2024-03-23T15:07:19;5.03;;;0.60;;
1206;SDS011;593;53.184;8.216;2024-03-23T15:09:44;1.43;;;0.70;;
1206;SDS011;593;53.184;8.216;2024-03-23T15:12:10;1.80;;;0.60;;
1206;SDS011;593;53.184;8.216;2024-03-23T15:14:35;5.20;;;0.97;;
1206;SDS011;593;53.184;8.216;2024-03-23T15:17:01;1.53;;;0.50;;
1206;SDS011;593;53.184;8.216;2024-03-23T15:19:29;2.40;;;0.70;;
1206;SDS011;593;53.184;8.216;2024-03-23T15:21:55;6.00;;;0.80;;
1206;SDS011;593;53.184;8.216;2024-03-23T15:24:21;3.77;;;0.60;;
1206;SDS011;593;53.184;8.216;2024-03-23T15:26:47;3.07;;;0.70;;
1206;SDS011;593;53.184;8.216;2024-03-23T15:29:14;4.50;;;0.80;;
1206;SDS011;593;53.184;8.216;2024-03-23T15:31:42;4.20;;;1.03;;
1206;SDS011;593;53.184;8.216;2024-03-23T15:34:08;1.80;;;1.20;;
1206;SDS011;593;53.184;8.216;2024-03-23T15:36:37;1.10;;;0.80;;
1206;SDS011;593;53.184;8.216;2024-03-23T15:39:05;1.83;;;0.80;;
1206;SDS011;593;53.184;8.216;2024-03-23T15:41:31;3.67;;;0.70;;
1206;SDS011;593;53.184;8.216;2024-03-23T15:43:58;4.83;;;0.90;;
1206;SDS011;593;53.184;8.216;2024-03-23T15:46:23;1.37;;;1.00;;
1206;SDS011;593;53.184;8.216;2024-03-23T15:48:50;1.33;;;0.90;;
1206;SDS011;593;53.184;8.216;2024-03-23T15:51:16;2.53;;;1.10;;
1206;SDS011;593;53.184;8.216;2024-03-23T15:53:43;2.03;;;0.90;;
1206;SDS011;593;53.184;8.216;2024-03-23T15:56:08;2.40;;;0.80;;
1206;SDS011;593;53.184;8.216;2024-03-23T15:58:33;2.57;;;1.10;;
1206;SDS011;593;53.184;8.216;2024-03-23T16:01:08;2.50;;;0.90;;
1206;SDS011;593;53.184;8.216;2024-03-23T16:03:35;4.37;;;0.80;;
1206;SDS011;593;53.184;8.216;2024-03-23T16:06:05;4.70;;;1.00;;
1206;SDS011;593;53.184;8.216;2024-03-23T16:08:34;1.17;;;0.67;;
1206;SDS011;593;53.184;8.216;2024-03-23T16:11:03;1.27;;;0.57;;
1206;SDS011;593;53.184;8.216;2024-03-23T16:13:29;3.93;;;0.70;;
1206;SDS011;593;53.184;8.216;2024-03-23T16:15:59;3.20;;;0.63;;
1206;SDS011;593;53.184;8.216;2024-03-23T16:18:26;3.20;;;0.80;;
1206;SDS011;593;53.184;8.216;2024-03-23T16:20:55;5.30;;;1.33;;
1206;SDS011;593;53.184;8.216;2024-03-23T16:23:21;6.23;;;1.00;;
1206;SDS011;593;53.184;8.216;2024-03-23T16:25:47;3.57;;;0.70;;
1206;SDS011;593;53.184;8.216;2024-03-23T16:28:26;2.73;;;1.47;;